createdAt,value
2023-01-09T00:01:38.425Z,6.70
2023-01-09T00:04:07.078Z,6.80
2023-01-09T00:06:36.787Z,6.80
2023-01-09T00:09:23.276Z,6.90
2023-01-09T00:11:50.796Z,6.80
2023-01-09T00:14:18.972Z,6.80
2023-01-09T00:16:46.228Z,6.80
2023-01-09T00:19:13.129Z,6.90
2023-01-09T00:21:40.293Z,6.80
2023-01-09T00:24:07.906Z,6.80
2023-01-09T00:26:35.781Z,6.80
2023-01-09T00:29:02.935Z,6.80
2023-01-09T00:31:55.108Z,6.80
2023-01-09T00:34:21.978Z,6.90
2023-01-09T00:36:49.234Z,6.90
2023-01-09T00:39:25.741Z,6.90
2023-01-09T00:41:55.696Z,6.90
2023-01-09T00:44:27.717Z,6.90
2023-01-09T00:47:01.005Z,6.90
2023-01-09T00:49:33.056Z,6.90
2023-01-09T00:52:00.561Z,6.90
2023-01-09T00:54:28.954Z,6.90
2023-01-09T00:56:56.606Z,6.90
2023-01-09T00:59:23.666Z,6.90
2023-01-09T01:01:50.963Z,6.90
2023-01-09T01:04:36.284Z,6.90
2023-01-09T01:07:21.602Z,6.90
2023-01-09T01:09:48.445Z,6.80
2023-01-09T01:12:15.477Z,6.90
2023-01-09T01:14:42.329Z,6.90
2023-01-09T01:17:09.109Z,6.90
2023-01-09T01:19:36.361Z,7.00
2023-01-09T01:22:03.956Z,7.00
2023-01-09T01:24:31.530Z,6.90
2023-01-09T01:26:58.398Z,6.80
2023-01-09T01:29:25.293Z,6.80
2023-01-09T01:31:52.739Z,6.80
2023-01-09T01:34:19.790Z,6.80
2023-01-09T01:36:46.736Z,6.80
2023-01-09T01:39:13.518Z,6.80
2023-01-09T01:41:40.385Z,6.90
2023-01-09T01:44:46.166Z,6.80
2023-01-09T01:47:14.385Z,6.80
2023-01-09T01:49:41.197Z,6.80
2023-01-09T01:52:08.299Z,6.90
2023-01-09T01:54:35.790Z,6.80
2023-01-09T01:57:05.518Z,6.80
2023-01-09T01:59:41.579Z,6.90
2023-01-09T02:02:10.102Z,6.90
2023-01-09T02:04:40.398Z,6.90
2023-01-09T02:07:10.060Z,6.90
2023-01-09T02:09:39.468Z,6.80
2023-01-09T02:12:18.776Z,6.80
2023-01-09T02:14:47.768Z,6.90
2023-01-09T02:17:21.728Z,6.80
2023-01-09T02:20:00.524Z,6.80
2023-01-09T02:22:43.527Z,6.90
2023-01-09T02:25:25.431Z,6.90
2023-01-09T02:28:04.204Z,6.90
2023-01-09T02:30:32.475Z,6.90
2023-01-09T02:33:17.812Z,6.90
2023-01-09T02:35:56.931Z,6.80
2023-01-09T02:38:30.181Z,6.80
2023-01-09T02:40:59.691Z,6.70
2023-01-09T02:43:27.067Z,6.80
2023-01-09T02:45:53.994Z,6.80
2023-01-09T02:48:21.011Z,6.80
2023-01-09T02:50:51.213Z,6.70
2023-01-09T02:53:31.698Z,6.70
2023-01-09T02:56:04.646Z,6.70
2023-01-09T02:59:02.209Z,6.60
2023-01-09T03:01:49.957Z,6.60
2023-01-09T03:04:27.731Z,6.70
2023-01-09T03:07:22.633Z,6.60
2023-01-09T03:09:52.128Z,6.60
2023-01-09T03:12:22.577Z,6.60
2023-01-09T03:14:53.381Z,6.50
2023-01-09T03:17:27.764Z,6.50
2023-01-09T03:19:56.800Z,6.50
2023-01-09T03:22:23.792Z,6.40
2023-01-09T03:24:50.934Z,6.40
2023-01-09T03:27:18.042Z,6.40
2023-01-09T03:29:44.973Z,6.50
2023-01-09T03:32:12.939Z,6.30
2023-01-09T03:34:39.840Z,6.30
2023-01-09T03:37:06.716Z,6.30
2023-01-09T03:39:33.584Z,6.20
2023-01-09T03:42:00.601Z,6.20
2023-01-09T03:44:28.058Z,6.30
2023-01-09T03:46:54.890Z,6.10
2023-01-09T03:49:21.797Z,6.00
2023-01-09T03:51:48.605Z,6.00
2023-01-09T03:54:15.562Z,5.90
2023-01-09T03:56:42.409Z,5.90
2023-01-09T03:59:09.272Z,5.90
2023-01-09T04:01:36.270Z,5.80
2023-01-09T04:04:03.175Z,5.90
2023-01-09T04:06:30.269Z,5.80
2023-01-09T04:08:57.718Z,5.80
2023-01-09T04:11:24.626Z,5.90
2023-01-09T04:13:51.442Z,5.90
2023-01-09T04:16:18.285Z,5.80
2023-01-09T04:18:45.174Z,5.80
2023-01-09T04:21:12.084Z,5.80
2023-01-09T04:23:38.948Z,5.70
2023-01-09T04:26:06.211Z,5.80
2023-01-09T04:28:33.262Z,5.80
2023-01-09T04:31:00.140Z,5.70
2023-01-09T04:33:26.941Z,5.80
2023-01-09T04:35:53.823Z,5.70
2023-01-09T04:38:20.684Z,5.80
2023-01-09T04:40:48.819Z,5.70
2023-01-09T04:43:15.753Z,5.80
2023-01-09T04:45:43.071Z,5.60
2023-01-09T04:48:10.322Z,5.60
2023-01-09T04:50:37.428Z,5.60
2023-01-09T04:53:05.853Z,5.50
2023-01-09T04:55:33.119Z,5.50
2023-01-09T04:57:59.959Z,5.50
2023-01-09T05:00:26.801Z,5.50
2023-01-09T05:02:53.785Z,5.50
2023-01-09T05:05:20.771Z,5.50
2023-01-09T05:07:47.543Z,5.50
2023-01-09T05:10:14.459Z,5.50
2023-01-09T05:12:41.390Z,5.50
2023-01-09T05:15:09.099Z,5.50
2023-01-09T05:17:35.997Z,5.60
2023-01-09T05:20:03.501Z,5.50
2023-01-09T05:22:30.364Z,5.50
2023-01-09T05:24:57.948Z,5.50
2023-01-09T05:27:27.334Z,5.50
2023-01-09T05:29:54.206Z,5.50
2023-01-09T05:32:21.059Z,5.50
2023-01-09T05:34:47.880Z,5.50
2023-01-09T05:37:14.960Z,5.50
2023-01-09T05:39:41.797Z,5.40
2023-01-09T05:42:08.603Z,5.30
2023-01-09T05:44:35.394Z,5.30
2023-01-09T05:47:03.000Z,5.20
2023-01-09T05:49:29.995Z,5.30
2023-01-09T05:51:57.165Z,5.30
2023-01-09T05:54:24.141Z,5.30
2023-01-09T05:56:50.966Z,5.20
2023-01-09T05:59:17.879Z,5.20
2023-01-09T06:01:44.845Z,5.20
2023-01-09T06:04:11.740Z,5.20
2023-01-09T06:06:39.833Z,5.20
2023-01-09T06:09:07.099Z,5.10
2023-01-09T06:11:35.756Z,5.20
2023-01-09T06:14:02.928Z,5.10
2023-01-09T06:16:29.814Z,5.10
2023-01-09T06:18:56.817Z,5.10
2023-01-09T06:21:23.804Z,5.20
2023-01-09T06:23:50.895Z,5.20
2023-01-09T06:26:17.847Z,5.30
2023-01-09T06:28:44.926Z,5.40
2023-01-09T06:31:12.336Z,5.30
2023-01-09T06:33:39.544Z,5.30
2023-01-09T06:36:06.646Z,5.40
2023-01-09T06:38:33.552Z,5.40
2023-01-09T06:41:00.391Z,5.40
2023-01-09T06:43:27.233Z,5.40
2023-01-09T06:45:54.087Z,5.40
2023-01-09T06:48:20.947Z,5.40
2023-01-09T06:50:48.648Z,5.30
2023-01-09T06:53:15.446Z,5.30
2023-01-09T06:55:42.252Z,5.20
2023-01-09T06:58:09.072Z,5.20
2023-01-09T07:00:36.197Z,5.20
2023-01-09T07:03:03.794Z,5.10
2023-01-09T07:05:31.228Z,5.10
2023-01-09T07:07:58.179Z,5.10
2023-01-09T07:10:25.108Z,5.20
2023-01-09T07:12:52.017Z,5.00
2023-01-09T07:15:18.990Z,5.00
2023-01-09T07:17:45.741Z,5.00
2023-01-09T07:20:12.688Z,5.00
2023-01-09T07:22:39.517Z,4.90
2023-01-09T07:25:12.232Z,5.00
2023-01-09T07:27:39.358Z,4.90
2023-01-09T07:30:07.065Z,5.00
2023-01-09T07:32:34.212Z,5.00
2023-01-09T07:35:01.076Z,5.10
2023-01-09T07:37:30.544Z,5.00
2023-01-09T07:39:57.471Z,5.10
2023-01-09T07:42:24.331Z,5.10
2023-01-09T07:44:51.402Z,5.10
2023-01-09T07:47:18.214Z,5.20
2023-01-09T07:49:45.607Z,5.40
2023-01-09T07:52:18.310Z,5.20
2023-01-09T07:54:45.254Z,5.30
2023-01-09T07:57:12.192Z,5.30
2023-01-09T07:59:39.006Z,5.30
2023-01-09T08:02:07.225Z,5.30
2023-01-09T08:04:35.750Z,5.30
2023-01-09T08:07:03.825Z,5.40
2023-01-09T08:09:30.903Z,5.40
2023-01-09T08:11:57.846Z,5.40
2023-01-09T08:14:24.701Z,5.40
2023-01-09T08:16:51.537Z,5.40
2023-01-09T08:19:18.501Z,5.40
2023-01-09T08:21:45.303Z,5.40
2023-01-09T08:24:12.207Z,5.40
2023-01-09T08:26:39.068Z,5.40
2023-01-09T08:29:06.545Z,5.50
2023-01-09T08:31:33.561Z,5.50
2023-01-09T08:34:00.482Z,5.60
2023-01-09T08:36:27.392Z,5.80
2023-01-09T08:38:54.306Z,5.70
2023-01-09T08:41:39.506Z,5.70
2023-01-09T08:44:24.881Z,5.80
2023-01-09T08:47:06.912Z,5.80
2023-01-09T08:49:42.052Z,5.80
2023-01-09T08:52:12.279Z,5.80
2023-01-09T08:54:39.982Z,5.90
2023-01-09T08:57:08.038Z,5.80
2023-01-09T08:59:35.307Z,5.90
2023-01-09T09:02:02.262Z,6.00
2023-01-09T09:04:29.277Z,5.90
2023-01-09T09:06:56.181Z,5.90
2023-01-09T09:09:23.096Z,6.00
2023-01-09T09:11:50.008Z,6.00
2023-01-09T09:14:35.387Z,6.00
2023-01-09T09:17:02.545Z,6.00
2023-01-09T09:19:29.382Z,6.00
2023-01-09T09:21:56.236Z,6.10
2023-01-09T09:24:23.107Z,6.00
2023-01-09T09:26:49.937Z,6.10
2023-01-09T09:29:16.981Z,6.20
2023-01-09T09:31:43.811Z,6.10
2023-01-09T09:34:10.707Z,6.20
2023-01-09T09:36:37.613Z,6.10
2023-01-09T09:39:07.245Z,6.20
2023-01-09T09:42:13.201Z,6.30
2023-01-09T09:45:05.673Z,6.20
2023-01-09T09:47:46.329Z,6.30
2023-01-09T09:50:31.404Z,6.30
2023-01-09T09:53:15.261Z,6.30
2023-01-09T09:55:42.955Z,6.40
2023-01-09T09:58:37.061Z,6.50
2023-01-09T10:01:05.567Z,6.40
2023-01-09T10:04:00.693Z,6.40
2023-01-09T10:06:34.141Z,6.50
2023-01-09T10:09:36.322Z,6.50
2023-01-09T10:12:33.491Z,6.50
2023-01-09T10:15:03.618Z,6.50
2023-01-09T10:18:06.348Z,6.50
2023-01-09T10:20:48.098Z,6.60
2023-01-09T10:23:47.528Z,6.60
2023-01-09T10:26:27.790Z,6.60
2023-01-09T10:29:09.659Z,6.60
2023-01-09T10:31:36.591Z,6.60
2023-01-09T10:34:12.512Z,6.60
2023-01-09T10:37:10.356Z,6.60
2023-01-09T10:39:46.367Z,6.60
2023-01-09T10:42:37.642Z,6.60
2023-01-09T10:45:20.176Z,6.60
2023-01-09T10:48:10.274Z,6.60
2023-01-09T10:50:55.960Z,6.70
2023-01-09T10:53:30.106Z,6.70
2023-01-09T10:56:04.733Z,6.70
2023-01-09T10:58:31.659Z,6.70
2023-01-09T11:01:01.378Z,6.70
2023-01-09T11:03:28.973Z,6.70
2023-01-09T11:05:58.789Z,6.70
2023-01-09T11:08:42.153Z,6.70
2023-01-09T11:11:10.729Z,6.70
2023-01-09T11:13:38.541Z,6.80
2023-01-09T11:16:11.468Z,6.80
2023-01-09T11:18:41.456Z,6.70
2023-01-09T11:21:39.469Z,6.70
2023-01-09T11:24:37.298Z,6.70
2023-01-09T11:27:13.253Z,6.70
2023-01-09T11:29:43.474Z,6.80
2023-01-09T11:32:24.024Z,6.80
2023-01-09T11:34:52.836Z,6.80
2023-01-09T11:37:26.136Z,6.80
2023-01-09T11:39:53.151Z,6.90
2023-01-09T11:42:43.394Z,6.80
2023-01-09T11:45:50.233Z,6.80
2023-01-09T11:48:29.630Z,6.80
2023-01-09T11:50:59.401Z,6.80
2023-01-09T11:53:58.133Z,6.80
2023-01-09T11:56:25.164Z,6.90
2023-01-09T11:58:52.083Z,6.90
2023-01-09T12:01:56.634Z,6.80
2023-01-09T12:04:42.203Z,6.80
2023-01-09T12:07:27.002Z,6.80
2023-01-09T12:10:08.868Z,6.80
2023-01-09T12:12:57.584Z,6.80
2023-01-09T12:15:33.669Z,6.70
2023-01-09T12:19:05.583Z,6.70
2023-01-09T12:21:41.654Z,6.70
2023-01-09T12:24:11.199Z,6.70
2023-01-09T12:26:56.736Z,6.70
2023-01-09T12:29:54.330Z,6.70
2023-01-09T12:32:37.242Z,6.70
2023-01-09T12:35:31.933Z,6.80
2023-01-09T12:38:41.465Z,6.70
2023-01-09T12:41:32.961Z,6.80
2023-01-09T12:44:35.462Z,6.80
2023-01-09T12:47:13.318Z,6.80
2023-01-09T12:50:05.797Z,6.80
2023-01-09T12:52:39.314Z,6.80
2023-01-09T12:55:27.908Z,6.90
2023-01-09T12:58:02.157Z,6.90
2023-01-09T13:00:35.997Z,7.00
2023-01-09T13:03:21.063Z,7.00
2023-01-09T13:05:50.422Z,6.90
2023-01-09T13:08:35.994Z,7.00
2023-01-09T13:11:19.817Z,6.90
2023-01-09T13:13:53.466Z,6.90
2023-01-09T13:16:30.895Z,7.00
2023-01-09T13:19:15.079Z,7.00
2023-01-09T13:21:42.247Z,7.00
2023-01-09T13:24:30.918Z,7.00
2023-01-09T13:27:05.741Z,7.00
2023-01-09T13:29:45.679Z,7.00
2023-01-09T13:33:01.877Z,7.00
2023-01-09T13:35:28.940Z,7.10
2023-01-09T13:37:55.897Z,7.10
2023-01-09T13:40:23.272Z,7.10
2023-01-09T13:43:05.755Z,7.10
2023-01-09T13:45:36.974Z,7.10
2023-01-09T13:48:10.988Z,7.10
2023-01-09T13:50:42.625Z,7.10
2023-01-09T13:53:18.592Z,7.20
2023-01-09T13:55:58.128Z,7.10
2023-01-09T13:58:38.124Z,7.10
2023-01-09T14:01:23.001Z,7.20
2023-01-09T14:04:21.560Z,7.20
2023-01-09T14:07:14.567Z,7.20
2023-01-09T14:09:49.066Z,7.20
2023-01-09T14:12:18.682Z,7.30
2023-01-09T14:14:47.178Z,7.20
2023-01-09T14:17:36.581Z,7.20
2023-01-09T14:20:23.289Z,7.20
2023-01-09T14:23:20.326Z,7.20
2023-01-09T14:25:44.936Z,7.40
2023-01-09T14:28:26.693Z,7.30
2023-01-09T14:30:53.480Z,7.30
2023-01-09T14:33:20.388Z,7.40
2023-01-09T14:36:10.136Z,7.30
2023-01-09T14:38:56.147Z,7.40
2023-01-09T14:42:06.870Z,7.40
2023-01-09T14:44:43.026Z,7.30
2023-01-09T14:47:37.316Z,7.30
2023-01-09T14:50:18.707Z,7.30
2023-01-09T14:52:50.951Z,7.40
2023-01-09T14:55:51.009Z,7.30
2023-01-09T14:58:33.130Z,7.30
2023-01-09T15:01:25.564Z,7.30
2023-01-09T15:04:01.073Z,7.40
2023-01-09T15:06:33.233Z,7.40
2023-01-09T15:09:17.396Z,7.30
2023-01-09T15:11:44.676Z,7.30
2023-01-09T15:14:33.922Z,7.30
2023-01-09T15:17:04.036Z,7.30
2023-01-09T15:19:32.145Z,7.30
2023-01-09T15:22:02.452Z,7.30
2023-01-09T15:24:32.480Z,7.30
2023-01-09T15:27:10.980Z,7.30
2023-01-09T15:29:37.864Z,7.30
2023-01-09T15:32:21.797Z,7.30
2023-01-09T15:34:49.705Z,7.30
2023-01-09T15:37:30.442Z,7.30
2023-01-09T15:40:03.077Z,7.30
2023-01-09T15:42:57.488Z,7.30
2023-01-09T15:45:49.765Z,7.30
2023-01-09T15:48:25.788Z,7.30
2023-01-09T15:51:10.444Z,7.30
2023-01-09T15:53:37.502Z,7.20
2023-01-09T15:56:39.163Z,7.20
2023-01-09T15:59:23.409Z,7.20
2023-01-09T16:02:39.673Z,7.10
2023-01-09T16:05:17.654Z,7.20
2023-01-09T16:07:49.115Z,7.10
2023-01-09T16:10:48.927Z,7.10
2023-01-09T16:13:16.162Z,7.10
2023-01-09T16:15:46.068Z,7.20
2023-01-09T16:18:18.172Z,7.10
2023-01-09T16:20:48.792Z,7.20
2023-01-09T16:23:29.166Z,7.20
2023-01-09T16:26:13.755Z,7.20
2023-01-09T16:29:45.734Z,7.20
2023-01-09T16:32:20.299Z,7.10
2023-01-09T16:34:54.918Z,7.10
2023-01-09T16:37:23.257Z,7.10
2023-01-09T16:40:05.480Z,7.10
2023-01-09T16:42:52.052Z,7.10
2023-01-09T16:45:29.986Z,7.10
2023-01-09T16:47:58.087Z,7.00
2023-01-09T16:50:25.680Z,7.00
2023-01-09T16:55:53.824Z,6.90
2023-01-09T16:59:02.668Z,6.90
2023-01-09T17:01:32.462Z,6.90
2023-01-09T17:03:59.617Z,6.90
2023-01-09T17:06:32.220Z,6.90
2023-01-09T17:09:27.231Z,6.80
2023-01-09T17:11:54.424Z,6.80
2023-01-09T17:14:21.338Z,6.80
2023-01-09T17:16:48.456Z,6.80
2023-01-09T17:19:20.550Z,6.80
2023-01-09T17:22:04.198Z,6.90
2023-01-09T17:28:05.015Z,6.70
2023-01-09T17:30:31.929Z,6.80
2023-01-09T17:33:26.441Z,6.80
2023-01-09T17:36:03.274Z,6.80
2023-01-09T17:38:30.277Z,6.70
2023-01-09T17:40:57.217Z,6.80
2023-01-09T17:43:24.562Z,6.70
2023-01-09T17:51:24.295Z,6.60
2023-01-09T17:53:51.387Z,6.60
2023-01-09T17:56:32.195Z,6.60
2023-01-09T17:58:59.164Z,6.50
2023-01-09T18:01:26.353Z,6.50
2023-01-09T18:03:53.314Z,6.70
2023-01-09T18:06:21.458Z,6.40
2023-01-09T18:08:48.372Z,6.40
2023-01-09T18:11:18.267Z,6.40
2023-01-09T18:13:46.600Z,6.40
2023-01-09T18:16:15.620Z,6.40
2023-01-09T18:18:42.790Z,6.40
2023-01-09T18:21:14.294Z,6.30
2023-01-09T18:23:41.385Z,6.40
2023-01-09T18:26:10.392Z,6.30
2023-01-09T18:28:40.285Z,6.50
2023-01-09T18:31:07.235Z,6.30
2023-01-09T18:33:34.121Z,6.30
2023-01-09T18:36:09.342Z,6.40
2023-01-09T18:38:36.530Z,6.30
2023-01-09T18:41:05.076Z,6.30
2023-01-09T18:43:31.907Z,6.30
2023-01-09T18:45:58.880Z,6.20
2023-01-09T18:48:26.730Z,6.20
2023-01-09T18:51:03.203Z,6.20
2023-01-09T18:53:30.317Z,6.10
2023-01-09T18:55:57.124Z,6.40
2023-01-09T18:58:24.065Z,6.40
2023-01-09T19:00:59.006Z,6.20
2023-01-09T19:03:27.571Z,6.20
2023-01-09T19:05:59.211Z,6.10
2023-01-09T19:08:26.021Z,6.10
2023-01-09T19:10:53.677Z,6.10
2023-01-09T19:13:20.546Z,6.10
2023-01-09T19:15:47.664Z,6.10
2023-01-09T19:18:36.348Z,6.10
2023-01-09T19:21:13.195Z,6.10
2023-01-09T19:23:41.648Z,6.10
2023-01-09T19:26:15.441Z,6.20
2023-01-09T19:28:45.331Z,6.10
2023-01-09T19:31:16.052Z,6.00
2023-01-09T19:33:43.904Z,6.00
2023-01-09T19:36:11.225Z,6.00
2023-01-09T19:38:38.421Z,6.00
2023-01-09T19:41:14.628Z,6.00
2023-01-09T19:43:42.335Z,6.00
2023-01-09T19:46:21.046Z,6.00
2023-01-09T19:48:48.455Z,6.00
2023-01-09T19:51:17.774Z,6.00
2023-01-09T19:53:45.126Z,6.00
2023-01-09T19:56:17.188Z,6.00
2023-01-09T19:59:22.525Z,6.00
2023-01-09T20:01:49.675Z,6.00
2023-01-09T20:04:17.486Z,6.00
2023-01-09T20:06:47.035Z,6.20
2023-01-09T20:09:16.438Z,6.00
2023-01-09T20:11:44.858Z,6.00
2023-01-09T20:14:17.012Z,6.10
2023-01-09T20:16:44.523Z,6.10
2023-01-09T20:19:13.283Z,6.10
2023-01-09T20:22:03.081Z,6.00
2023-01-09T20:24:30.020Z,6.00
2023-01-09T20:29:44.544Z,6.00
2023-01-09T20:32:38.430Z,6.00
2023-01-09T20:35:05.821Z,6.00
2023-01-09T20:37:32.703Z,5.90
2023-01-09T20:39:59.655Z,5.90
2023-01-09T20:42:26.555Z,6.00
2023-01-09T20:44:53.406Z,6.00
2023-01-09T20:47:22.400Z,6.00
2023-01-09T20:49:49.200Z,6.00
2023-01-09T20:52:53.768Z,6.00
2023-01-09T20:55:23.691Z,5.90
2023-01-09T20:57:50.588Z,6.20
2023-01-09T21:00:21.239Z,6.10
2023-01-09T21:02:48.047Z,5.80
2023-01-09T21:05:22.237Z,5.80
2023-01-09T21:07:49.074Z,5.70
2023-01-09T21:10:16.378Z,5.90
2023-01-09T21:12:43.190Z,5.70
2023-01-09T21:15:12.502Z,5.80
2023-01-09T21:17:40.558Z,5.80
2023-01-09T21:20:11.178Z,5.70
2023-01-09T21:22:38.401Z,5.80
2023-01-09T21:25:06.300Z,5.80
2023-01-09T21:27:35.491Z,5.80
2023-01-09T21:30:03.979Z,6.00
2023-01-09T21:32:32.796Z,5.80
2023-01-09T21:35:04.179Z,6.00
2023-01-09T21:37:33.608Z,5.80
2023-01-09T21:40:01.164Z,5.80
2023-01-09T21:42:46.780Z,5.80
2023-01-09T21:48:27.774Z,5.80
2023-01-09T21:51:19.557Z,5.80
2023-01-09T21:53:46.543Z,5.90
2023-01-09T21:56:13.529Z,5.80
2023-01-09T21:58:43.346Z,5.70
2023-01-09T22:01:11.805Z,5.70
2023-01-09T22:03:38.667Z,5.60
2023-01-09T22:06:06.265Z,5.60
2023-01-09T22:08:33.377Z,5.60
2023-01-09T22:11:01.321Z,5.70
2023-01-09T22:13:29.011Z,5.60
2023-01-09T22:16:11.664Z,5.60
2023-01-09T22:18:38.891Z,5.50
2023-01-09T22:21:05.851Z,5.60
2023-01-09T22:23:32.674Z,5.60
2023-01-09T22:26:00.686Z,5.60
2023-01-09T22:28:27.599Z,5.60
2023-01-09T22:30:54.428Z,5.60
2023-01-09T22:33:21.339Z,5.70
2023-01-09T22:35:48.284Z,5.70
2023-01-09T22:38:15.060Z,5.70
2023-01-09T22:40:41.907Z,5.70
2023-01-09T22:43:14.214Z,5.70
2023-01-09T22:45:41.216Z,5.70
2023-01-09T22:48:08.947Z,5.90
2023-01-09T22:50:36.368Z,5.70
2023-01-09T22:53:03.316Z,5.80
2023-01-09T22:55:30.173Z,5.70
2023-01-09T22:57:56.978Z,5.70
2023-01-09T23:00:23.861Z,5.70
2023-01-09T23:02:50.965Z,5.70
2023-01-09T23:05:19.660Z,5.70
2023-01-09T23:07:46.516Z,5.70
2023-01-09T23:10:13.802Z,5.80
2023-01-09T23:12:40.617Z,5.70
2023-01-09T23:15:09.103Z,5.70
2023-01-09T23:17:35.909Z,5.60
2023-01-09T23:20:02.910Z,5.60
2023-01-09T23:22:32.365Z,5.60
2023-01-09T23:24:59.184Z,5.50
2023-01-09T23:27:25.965Z,5.60
2023-01-09T23:29:53.252Z,5.50
2023-01-09T23:32:20.087Z,5.40
2023-01-09T23:34:48.951Z,5.40
2023-01-09T23:37:16.053Z,5.40
2023-01-09T23:39:42.900Z,5.30
2023-01-09T23:42:30.118Z,5.30
2023-01-09T23:44:56.977Z,5.40
2023-01-09T23:47:23.981Z,5.30
2023-01-09T23:49:51.017Z,5.30
2023-01-09T23:52:23.951Z,5.30
2023-01-09T23:54:50.850Z,5.30
2023-01-09T23:57:18.941Z,5.30
2023-01-09T23:59:45.783Z,5.40
